Time;durP1;ratioP1;P1;durP2;ratioP2;P2;SDS_P1;SDS_P2;PMS_P1;PMS_P2;Temp;Humidity;BMP_temperature;BMP_pressure;BME280_temperature;BME280_humidity;BME280_pressure;Samples;Min_cycle;Max_cycle;Signal;HPM_P1;HPM_P2
2021/07/07 00:01:04;;;;;;;;;6.00;5.00;;;;;24.65;48.75;98238.53;4915004;28;102645;-82
2021/07/07 00:03:31;;;;;;;;;4.67;4.67;;;;;24.64;48.53;98240.47;4884300;28;103648;-82
2021/07/07 00:05:59;;;;;;;;;3.33;3.33;;;;;24.63;48.56;98230.53;4889047;28;102280;-82
2021/07/07 00:08:26;;;;;;;;;5.00;5.00;;;;;24.62;48.81;98231.69;4915470;28;102454;-82
2021/07/07 00:10:53;;;;;;;;;6.67;6.33;;;;;24.61;48.98;98226.44;4918729;28;102605;-82
2021/07/07 00:13:20;;;;;;;;;6.33;6.33;;;;;24.61;48.81;98232.78;4907274;28;108754;-82
2021/07/07 00:15:48;;;;;;;;;4.00;4.00;;;;;24.60;48.89;98235.84;4909986;28;103373;-82
2021/07/07 00:18:15;;;;;;;;;4.00;4.00;;;;;24.59;48.82;98246.06;4918327;28;102581;-82
2021/07/07 00:20:53;;;;;;;;;6.00;5.67;;;;;24.61;48.85;98234.72;4917498;28;102628;-82
2021/07/07 00:23:24;;;;;;;;;6.00;4.67;;;;;24.60;48.69;98227.56;4915784;28;109131;-82
2021/07/07 00:25:51;;;;;;;;;5.67;5.67;;;;;24.59;48.60;98235.03;4924605;28;102143;-82
2021/07/07 00:28:19;;;;;;;;;4.67;4.00;;;;;24.59;48.66;98240.56;4904644;28;102248;-82
2021/07/07 00:30:46;;;;;;;;;5.67;5.67;;;;;24.59;48.94;98228.66;4915554;28;102375;-82
2021/07/07 00:33:14;;;;;;;;;7.67;6.67;;;;;24.58;48.69;98233.41;4916928;28;104250;-82
2021/07/07 00:35:42;;;;;;;;;5.33;5.00;;;;;24.57;48.76;98231.75;4908710;28;102107;-82
2021/07/07 00:38:09;;;;;;;;;6.67;6.67;;;;;24.57;48.73;98237.28;4914424;28;102228;-82
2021/07/07 00:40:36;;;;;;;;;5.00;5.00;;;;;24.57;48.89;98231.75;4911375;28;102626;-82
2021/07/07 00:43:03;;;;;;;;;5.00;4.33;;;;;24.57;48.61;98231.75;4906063;28;104301;-83
2021/07/07 00:45:30;;;;;;;;;7.67;7.67;;;;;24.55;48.48;98228.44;4915455;28;102449;-82
2021/07/07 00:47:58;;;;;;;;;5.00;5.00;;;;;24.55;48.70;98233.16;4919093;28;102015;-81
2021/07/07 00:50:25;;;;;;;;;4.00;4.00;;;;;24.54;48.65;98232.34;4913792;28;104043;-82
2021/07/07 00:52:55;;;;;;;;;6.67;5.67;;;;;24.55;48.65;98228.44;4908623;28;108635;-82
2021/07/07 00:55:22;;;;;;;;;6.00;6.00;;;;;24.54;48.66;98220.47;4909406;28;102367;-82
2021/07/07 00:57:50;;;;;;;;;5.67;5.67;;;;;24.54;48.57;98231.53;4890795;28;102652;-82
2021/07/07 01:00:22;;;;;;;;;6.67;6.67;;;;;24.53;48.89;98219.66;4904299;28;102278;-82
2021/07/07 01:02:50;;;;;;;;;6.67;6.33;;;;;24.52;48.43;98222.72;4890550;28;104170;-82
2021/07/07 01:05:17;;;;;;;;;6.33;6.00;;;;;24.53;48.43;98221.59;4914827;28;102338;-82
2021/07/07 01:07:44;;;;;;;;;6.33;6.33;;;;;24.52;48.72;98225.47;4900139;28;102552;-82
2021/07/07 01:10:13;;;;;;;;;7.00;7.00;;;;;24.51;48.36;98224.66;4917399;28;102658;-82
2021/07/07 01:12:41;;;;;;;;;8.33;7.33;;;;;24.52;48.62;98225.47;4904885;28;104156;-82
2021/07/07 01:15:12;;;;;;;;;6.67;6.33;;;;;24.50;48.49;98228.53;4905900;28;102314;-82
2021/07/07 01:17:39;;;;;;;;;4.67;4.67;;;;;24.50;48.51;98224.94;4921678;28;102035;-82
2021/07/07 01:20:07;;;;;;;;;7.00;6.67;;;;;24.49;48.50;98226.09;4900986;28;102649;-82
2021/07/07 01:22:35;;;;;;;;;7.33;6.00;;;;;24.49;48.61;98224.16;4893327;28;104237;-82
2021/07/07 01:25:04;;;;;;;;;7.00;6.00;;;;;24.47;48.59;98226.38;4911985;28;102537;-82
2021/07/07 01:27:31;;;;;;;;;8.33;6.67;;;;;24.49;48.50;98231.63;4912632;28;103244;-82
2021/07/07 01:29:59;;;;;;;;;7.00;6.00;;;;;24.46;48.54;98230.25;4898001;28;103054;-82
2021/07/07 01:32:26;;;;;;;;;6.33;6.00;;;;;24.47;48.54;98226.38;4911694;28;104379;-82
2021/07/07 01:34:53;;;;;;;;;4.00;4.00;;;;;24.47;48.43;98218.09;4920274;28;103006;-82
2021/07/07 01:37:22;;;;;;;;;6.00;6.00;;;;;24.47;48.58;98226.38;4907732;28;102367;-82
2021/07/07 01:39:52;;;;;;;;;6.00;6.00;;;;;24.45;48.54;98223.09;4911530;28;105802;-81
2021/07/07 01:42:19;;;;;;;;;6.67;6.00;;;;;24.44;48.12;98227.81;4918983;28;105182;-82
2021/07/07 01:44:47;;;;;;;;;7.00;6.00;;;;;24.44;48.37;98227.81;4904533;28;103228;-82
2021/07/07 01:47:14;;;;;;;;;7.67;5.67;;;;;24.44;48.24;98225.03;4913381;28;102765;-82
2021/07/07 01:49:41;;;;;;;;;8.00;7.33;;;;;24.44;48.00;98221.47;4933909;28;102530;-82
2021/07/07 01:52:08;;;;;;;;;9.67;7.00;;;;;24.42;48.19;98223.69;4920498;28;104347;-81
2021/07/07 01:54:35;;;;;;;;;6.33;6.33;;;;;24.42;48.07;98223.69;4913169;28;103203;-82
2021/07/07 01:57:02;;;;;;;;;7.33;7.00;;;;;24.42;48.13;98230.03;4941691;28;104959;-82
2021/07/07 01:59:29;;;;;;;;;7.33;7.00;;;;;24.41;47.96;98216.50;4918139;28;102844;-82
2021/07/07 02:01:57;;;;;;;;;7.00;6.67;;;;;24.39;47.96;98225.13;4910153;28;104013;-82
2021/07/07 02:04:24;;;;;;;;;10.33;9.33;;;;;24.38;47.91;98215.19;4910684;28;102509;-82
2021/07/07 02:06:51;;;;;;;;;6.33;6.33;;;;;24.39;47.95;98213.25;4915960;28;102082;-82
2021/07/07 02:09:19;;;;;;;;;8.00;7.33;;;;;24.37;48.18;98213.53;4906920;28;102693;-82
2021/07/07 02:11:47;;;;;;;;;10.33;9.33;;;;;24.37;47.95;98213.53;4906470;28;104485;-82
2021/07/07 02:14:17;;;;;;;;;7.33;6.33;;;;;24.37;47.73;98213.53;4912505;28;102327;-82
2021/07/07 02:16:44;;;;;;;;;6.33;6.00;;;;;24.36;47.82;98219.38;4914193;28;102573;-82
2021/07/07 02:19:12;;;;;;;;;8.33;8.00;;;;;24.35;47.90;98217.72;4925539;28;103133;-82
2021/07/07 02:21:39;;;;;;;;;6.33;6.00;;;;;24.34;47.73;98211.38;4921741;28;104120;-82
2021/07/07 02:24:07;;;;;;;;;10.00;9.00;;;;;24.34;47.85;98216.06;4913949;28;102656;-82
2021/07/07 02:26:34;;;;;;;;;6.33;6.00;;;;;24.33;47.84;98220.78;4921843;28;104400;-82
2021/07/07 02:29:01;;;;;;;;;8.00;7.00;;;;;24.31;47.85;98217.50;4916786;28;102566;-81
2021/07/07 02:31:28;;;;;;;;;7.00;6.00;;;;;24.33;47.91;98220.78;4910168;28;104032;-82
2021/07/07 02:33:55;;;;;;;;;7.67;7.33;;;;;24.32;47.86;98221.06;4916626;28;102601;-81
2021/07/07 02:36:22;;;;;;;;;9.33;8.00;;;;;24.32;47.73;98223.84;4929822;28;102652;-82
2021/07/07 02:38:49;;;;;;;;;8.00;7.00;;;;;24.30;47.77;98217.81;4913104;28;102829;-82
2021/07/07 02:41:16;;;;;;;;;8.67;8.67;;;;;24.31;47.79;98233.28;4916124;28;104104;-82
2021/07/07 02:43:43;;;;;;;;;8.33;7.67;;;;;24.31;47.79;98244.31;4914284;28;102542;-83
2021/07/07 02:46:11;;;;;;;;;8.33;7.67;;;;;24.30;47.68;98242.66;4899845;28;102502;-82
2021/07/07 02:48:38;;;;;;;;;9.00;7.67;;;;;24.29;47.92;98241.03;4909945;28;102204;-82
2021/07/07 02:51:05;;;;;;;;;7.00;7.00;;;;;24.29;47.58;98239.09;4921444;28;104262;-82
2021/07/07 02:53:32;;;;;;;;;10.00;7.67;;;;;24.28;47.83;98240.19;4901753;28;102505;-83
2021/07/07 02:55:59;;;;;;;;;9.67;8.33;;;;;24.28;47.83;98244.91;4913725;28;102596;-83
2021/07/07 02:58:26;;;;;;;;;8.00;5.67;;;;;24.26;47.58;98247.16;4930134;28;102793;-83
2021/07/07 03:00:53;;;;;;;;;7.00;7.00;;;;;24.24;47.54;98250.19;4910628;28;104047;-83
2021/07/07 03:03:25;;;;;;;;;10.00;8.33;;;;;24.27;47.97;98252.38;4906526;28;102625;-83
2021/07/07 03:05:54;;;;;;;;;7.67;7.67;;;;;24.27;47.57;98248.81;4925464;28;103665;-83
2021/07/07 03:08:22;;;;;;;;;10.33;8.00;;;;;24.29;47.56;98252.06;4919017;28;103503;-84
2021/07/07 03:10:49;;;;;;;;;11.33;9.00;;;;;24.29;47.63;98254.84;4908681;28;104075;-83
2021/07/07 03:13:17;;;;;;;;;9.00;9.00;;;;;24.29;47.48;98261.19;4929354;28;102306;-83
2021/07/07 03:15:45;;;;;;;;;11.00;8.33;;;;;24.29;47.38;98263.94;4901467;28;104381;-83
2021/07/07 03:18:12;;;;;;;;;8.33;7.33;;;;;24.29;47.53;98257.59;4912339;28;102530;-83
2021/07/07 03:20:42;;;;;;;;;9.33;9.00;;;;;24.29;47.55;98263.13;4924356;28;104253;-83
2021/07/07 03:23:12;;;;;;;;;8.67;8.33;;;;;24.29;47.38;98269.47;4918064;28;102625;-84
2021/07/07 03:25:39;;;;;;;;;8.67;8.67;;;;;24.28;47.20;98270.59;4909356;28;102345;-84
2021/07/07 03:28:06;;;;;;;;;10.33;9.00;;;;;24.27;47.34;98268.16;4918512;28;102491;-83
2021/07/07 03:30:33;;;;;;;;;9.00;8.67;;;;;24.27;47.11;98279.19;4920575;28;104170;-83
2021/07/07 03:33:01;;;;;;;;;10.67;9.00;;;;;24.24;47.06;98260.44;4922188;28;102578;-82
2021/07/07 03:35:28;;;;;;;;;9.33;9.33;;;;;24.26;46.87;98269.25;4925756;28;102295;-82
2021/07/07 03:37:55;;;;;;;;;9.67;9.67;;;;;24.24;47.16;98271.47;4904508;28;103379;-82
2021/07/07 03:40:23;;;;;;;;;10.33;10.00;;;;;24.23;47.08;98273.41;4902083;28;104607;-83
2021/07/07 03:42:50;;;;;;;;;10.00;9.67;;;;;24.23;47.14;98267.91;4918973;28;102173;-83
2021/07/07 03:45:18;;;;;;;;;9.67;9.00;;;;;24.22;46.79;98266.28;4914361;28;103167;-82
2021/07/07 03:47:45;;;;;;;;;10.00;10.00;;;;;24.22;47.16;98274.56;4907181;28;102532;-83
2021/07/07 03:50:12;;;;;;;;;9.33;9.33;;;;;24.21;46.99;98267.38;4915436;28;106123;-83
2021/07/07 03:52:40;;;;;;;;;9.33;8.33;;;;;24.21;46.89;98272.09;4916114;28;102036;-83
2021/07/07 03:55:11;;;;;;;;;11.33;11.33;;;;;24.21;47.03;98272.91;4915298;28;102274;-82
2021/07/07 03:57:38;;;;;;;;;6.67;6.00;;;;;24.21;46.72;98283.16;4921692;28;102349;-82
2021/07/07 04:00:06;;;;;;;;;11.33;11.00;;;;;24.20;47.03;98276.78;4914976;28;104108;-83
2021/07/07 04:02:33;;;;;;;;;12.00;11.33;;;;;24.20;46.96;98281.50;4903404;28;102402;-83
2021/07/07 04:05:01;;;;;;;;;10.00;10.00;;;;;24.20;46.90;98284.25;4900083;28;102464;-83
2021/07/07 04:07:28;;;;;;;;;13.33;11.00;;;;;24.20;46.93;98278.72;4917772;28;102253;-83
2021/07/07 04:09:55;;;;;;;;;9.00;9.00;;;;;24.19;46.98;98286.19;4898802;28;104240;-82
2021/07/07 04:12:22;;;;;;;;;10.00;10.00;;;;;24.19;46.77;98288.13;4898113;28;102345;-81
2021/07/07 04:14:49;;;;;;;;;9.67;9.67;;;;;24.19;47.06;98290.88;4905932;28;102508;-82
2021/07/07 04:17:16;;;;;;;;;12.00;10.67;;;;;24.18;46.81;98290.06;4911743;28;102645;-81
2021/07/07 04:19:43;;;;;;;;;10.33;10.33;;;;;24.16;46.87;98286.78;4897138;28;104067;-81
2021/07/07 04:22:10;;;;;;;;;8.33;7.33;;;;;24.15;46.67;98289.81;4914491;28;102414;-81
2021/07/07 04:24:38;;;;;;;;;9.00;9.00;;;;;24.16;46.70;98294.25;4897989;28;102210;-81
2021/07/07 04:27:05;;;;;;;;;13.67;11.33;;;;;24.16;46.98;98305.31;4905257;28;102166;-81
2021/07/07 04:29:32;;;;;;;;;11.33;10.33;;;;;24.15;46.99;98301.69;4910274;28;104244;-82
2021/07/07 04:31:59;;;;;;;;;11.67;11.00;;;;;24.15;46.58;98300.88;4903141;28;103293;-82
2021/07/07 04:34:26;;;;;;;;;11.00;11.00;;;;;24.15;46.76;98301.69;4906289;28;104671;-80
2021/07/07 04:36:54;;;;;;;;;10.00;10.00;;;;;24.14;46.80;98296.44;4908252;28;102279;-81
2021/07/07 04:39:21;;;;;;;;;10.33;9.33;;;;;24.13;46.78;98294.84;4908261;28;104280;-82
2021/07/07 04:41:48;;;;;;;;;11.00;11.00;;;;;24.14;46.84;98300.03;4905506;28;102576;-82
2021/07/07 04:44:15;;;;;;;;;9.33;9.33;;;;;24.14;46.63;98293.69;4924238;28;102596;-82
2021/07/07 04:46:42;;;;;;;;;14.33;12.33;;;;;24.13;46.82;98300.34;4908864;28;102416;-82
2021/07/07 04:49:09;;;;;;;;;11.00;9.67;;;;;24.14;46.73;98302.81;4906656;28;104110;-82
2021/07/07 04:51:36;;;;;;;;;11.00;9.33;;;;;24.13;46.90;98303.94;4925600;28;102972;-83
2021/07/07 04:54:03;;;;;;;;;9.33;9.33;;;;;24.14;46.96;98304.75;4903771;28;102716;-82
2021/07/07 04:56:31;;;;;;;;;11.67;10.33;;;;;24.13;47.10;98309.47;4902640;28;102404;-83
2021/07/07 04:58:58;;;;;;;;;10.00;10.00;;;;;24.13;46.94;98305.88;4916496;28;109512;-83
2021/07/07 05:01:25;;;;;;;;;10.33;10.33;;;;;24.12;46.82;98302.28;4905823;28;102191;-82
2021/07/07 05:03:52;;;;;;;;;10.33;9.67;;;;;24.13;47.04;98303.13;4910492;28;102684;-83
2021/07/07 05:06:19;;;;;;;;;12.00;11.00;;;;;24.13;46.84;98300.34;4924371;28;102796;-83
2021/07/07 05:08:46;;;;;;;;;11.00;10.00;;;;;24.13;46.86;98308.66;4914806;28;103082;-83
2021/07/07 05:11:15;;;;;;;;;11.00;10.00;;;;;24.13;46.92;98303.13;4919160;28;102630;-83
2021/07/07 05:13:42;;;;;;;;;11.33;10.00;;;;;24.12;46.95;98307.81;4926994;28;102208;-82
2021/07/07 05:16:09;;;;;;;;;11.00;9.33;;;;;24.14;47.08;98310.25;4924441;28;102533;-81
2021/07/07 05:18:36;;;;;;;;;11.33;9.67;;;;;24.13;46.83;98303.13;4909828;28;104126;-81
2021/07/07 05:21:03;;;;;;;;;13.00;12.00;;;;;24.14;47.00;98313.03;4921668;28;102713;-82
2021/07/07 05:23:33;;;;;;;;;8.33;8.33;;;;;24.15;46.69;98317.44;4915537;28;102770;-82
2021/07/07 05:26:02;;;;;;;;;12.33;10.33;;;;;24.14;47.04;98302.81;4911951;28;102604;-81
2021/07/07 05:28:29;;;;;;;;;13.33;12.00;;;;;24.16;47.11;98308.06;4916967;28;108957;-81
2021/07/07 05:31:03;;;;;;;;;12.00;11.33;;;;;24.17;47.07;98309.72;4911656;28;102186;-82
2021/07/07 05:33:34;;;;;;;;;10.00;10.00;;;;;24.18;46.87;98316.91;4908592;28;102572;-82
2021/07/07 05:36:06;;;;;;;;;13.00;9.33;;;;;24.18;46.61;98305.84;4915801;28;102786;-83
2021/07/07 05:38:33;;;;;;;;;13.33;11.67;;;;;24.19;46.85;98313.00;4909706;28;108733;-82
2021/07/07 05:41:01;;;;;;;;;11.33;10.33;;;;;24.19;47.06;98316.59;4914018;28;103094;-83
2021/07/07 05:43:28;;;;;;;;;12.00;11.00;;;;;24.19;47.21;98313.00;4912868;28;105266;-82
2021/07/07 05:45:58;;;;;;;;;13.00;11.33;;;;;24.19;46.82;98313.00;4928843;28;102640;-82
2021/07/07 05:48:29;;;;;;;;;12.67;11.00;;;;;24.19;47.10;98313.00;4898649;28;104105;-83
2021/07/07 05:50:56;;;;;;;;;11.67;10.33;;;;;24.19;47.16;98310.22;4912228;28;102749;-83
2021/07/07 05:53:23;;;;;;;;;11.00;11.00;;;;;24.19;47.16;98315.75;4914325;28;102742;-83
2021/07/07 05:55:51;;;;;;;;;11.33;10.33;;;;;24.19;46.93;98316.59;4905767;28;102249;-84
2021/07/07 05:58:18;;;;;;;;;10.00;9.67;;;;;24.20;47.14;98322.94;4905435;28;104303;-82
2021/07/07 06:00:45;;;;;;;;;9.67;9.33;;;;;24.20;46.98;98322.94;4918031;28;102639;-82
2021/07/07 06:03:13;;;;;;;;;10.67;10.00;;;;;24.21;47.13;98321.81;4902510;28;102232;-81
2021/07/07 06:05:40;;;;;;;;;10.00;10.00;;;;;24.21;47.15;98322.66;4913411;28;102352;-82
2021/07/07 06:08:07;;;;;;;;;9.33;9.33;;;;;24.22;47.18;98326.25;4897857;28;104338;-82
2021/07/07 06:10:34;;;;;;;;;11.00;11.00;;;;;24.22;47.30;98323.47;4920158;28;104520;-83
2021/07/07 06:13:02;;;;;;;;;10.67;9.33;;;;;24.21;47.28;98325.41;4903663;28;102994;-83
2021/07/07 06:15:32;;;;;;;;;11.00;11.00;;;;;24.23;47.31;98325.09;4913183;28;102613;-82
2021/07/07 06:17:59;;;;;;;;;12.33;12.33;;;;;24.22;47.23;98326.25;4898891;28;107826;-82
2021/07/07 06:20:26;;;;;;;;;11.33;10.33;;;;;24.23;47.19;98331.44;4868556;28;102587;-83
2021/07/07 06:22:54;;;;;;;;;10.67;10.33;;;;;24.24;47.39;98321.22;4923970;28;102653;-83
2021/07/07 06:25:21;;;;;;;;;11.67;10.00;;;;;24.24;47.24;98326.75;4919527;28;102732;-82
2021/07/07 06:27:48;;;;;;;;;9.67;9.33;;;;;24.25;47.35;98333.94;4904342;28;104073;-82
2021/07/07 06:30:18;;;;;;;;;10.33;9.67;;;;;24.24;47.49;98332.28;4923351;28;102542;-83
2021/07/07 06:32:46;;;;;;;;;11.00;10.00;;;;;24.26;47.47;98332.81;4932884;28;102181;-83
2021/07/07 06:35:13;;;;;;;;;12.67;11.67;;;;;24.26;47.26;98335.56;4907746;28;102954;-83
2021/07/07 06:37:40;;;;;;;;;9.67;9.67;;;;;24.28;47.20;98338.84;4902189;28;104032;-83
2021/07/07 06:40:08;;;;;;;;;10.33;10.00;;;;;24.26;47.47;98333.66;4930660;28;102534;-83
2021/07/07 06:42:35;;;;;;;;;11.00;10.33;;;;;24.28;47.47;98338.84;4892094;28;102549;-83
2021/07/07 06:45:06;;;;;;;;;12.33;11.33;;;;;24.26;47.54;98335.56;4914971;28;102574;-82
2021/07/07 06:47:33;;;;;;;;;10.67;10.00;;;;;24.29;47.40;98341.34;4912408;28;108946;-82
2021/07/07 06:50:01;;;;;;;;;10.33;10.33;;;;;24.30;47.52;98344.91;4917860;28;107074;-82
2021/07/07 06:52:28;;;;;;;;;9.33;9.00;;;;;24.29;47.55;98340.50;4916333;28;102403;-82
2021/07/07 06:54:55;;;;;;;;;11.00;9.67;;;;;24.30;47.41;98337.47;4889999;28;102484;-82
2021/07/07 06:57:22;;;;;;;;;10.00;9.00;;;;;24.30;47.55;98331.94;4918301;28;104220;-82
2021/07/07 06:59:49;;;;;;;;;9.67;8.67;;;;;24.31;47.59;98338.28;4919256;28;102117;-82
2021/07/07 07:02:17;;;;;;;;;9.00;9.00;;;;;24.32;47.65;98339.91;4926980;28;102483;-82
2021/07/07 07:04:44;;;;;;;;;8.67;8.33;;;;;24.32;47.62;98337.13;4913638;28;103858;-82
2021/07/07 07:07:11;;;;;;;;;11.33;10.33;;;;;24.33;47.49;98341.56;4904897;28;104280;-82
2021/07/07 07:09:38;;;;;;;;;1.00;0.00;;;;;24.33;47.66;98339.63;4940273;28;102083;-83
2021/07/07 07:12:05;;;;;;;;;9.67;9.00;;;;;24.34;47.63;98334.91;4917677;28;103292;-82
2021/07/07 07:14:33;;;;;;;;;10.00;9.00;;;;;24.34;47.71;98341.25;4917824;28;103586;-81
2021/07/07 07:17:00;;;;;;;;;13.33;11.67;;;;;24.35;47.76;98344.84;4928446;28;110300;-82
2021/07/07 07:19:27;;;;;;;;;11.00;11.00;;;;;24.35;47.76;98339.31;4917745;28;102370;-82
2021/07/07 07:21:54;;;;;;;;;9.67;9.33;;;;;24.36;47.72;98346.50;4914012;28;103065;-82
2021/07/07 07:24:21;;;;;;;;;11.67;10.33;;;;;24.37;47.71;98339.84;4927818;28;104177;-83
2021/07/07 07:26:48;;;;;;;;;10.67;10.00;;;;;24.38;47.82;98344.25;4918342;28;103799;-83
2021/07/07 07:29:15;;;;;;;;;12.00;10.67;;;;;24.36;47.83;98336.25;4917097;28;102438;-82
2021/07/07 07:31:42;;;;;;;;;8.67;8.00;;;;;24.39;47.70;98340.38;4934698;28;102213;-83
2021/07/07 07:34:10;;;;;;;;;8.67;8.67;;;;;24.39;47.83;98337.63;4920900;28;102501;-83
2021/07/07 07:36:37;;;;;;;;;13.33;12.67;;;;;24.40;47.60;98347.56;4896707;28;104475;-83
2021/07/07 07:39:11;;;;;;;;;10.67;10.00;;;;;24.40;47.80;98347.56;4914977;28;102844;-83
2021/07/07 07:41:39;;;;;;;;;10.00;10.00;;;;;24.40;47.90;98345.63;4929381;28;103323;-82
2021/07/07 07:44:12;;;;;;;;;10.00;9.67;;;;;24.41;47.88;98343.66;4906992;28;102700;-82
2021/07/07 07:46:39;;;;;;;;;11.33;10.67;;;;;24.42;47.74;98340.59;4927961;28;104493;-82
2021/07/07 07:49:07;;;;;;;;;9.00;8.67;;;;;24.42;47.89;98346.13;4927343;28;102236;-81
2021/07/07 07:51:34;;;;;;;;;11.00;10.00;;;;;24.42;47.81;98340.59;4909082;28;102696;-82
2021/07/07 07:54:01;;;;;;;;;10.00;10.00;;;;;24.41;47.70;98333.41;4915366;28;102621;-82
2021/07/07 07:56:29;;;;;;;;;10.67;7.67;;;;;24.43;47.94;98341.44;4926286;28;104155;-82
2021/07/07 07:58:56;;;;;;;;;10.67;9.00;;;;;24.44;47.82;98341.13;4916397;28;102856;-82
2021/07/07 08:01:24;;;;;;;;;10.00;9.67;;;;;24.47;47.95;98347.16;4916956;28;102467;-82
2021/07/07 08:03:52;;;;;;;;;10.00;9.33;;;;;24.45;47.92;98340.00;4925761;28;103643;-82
2021/07/07 08:06:19;;;;;;;;;9.00;8.67;;;;;24.48;47.88;98348.81;4913035;28;104477;-82
2021/07/07 08:08:46;;;;;;;;;10.67;10.00;;;;;24.48;47.72;98352.41;4917217;28;103231;-82
2021/07/07 08:11:13;;;;;;;;;9.33;9.33;;;;;24.48;47.82;98344.13;4921211;28;102168;-82
2021/07/07 08:13:41;;;;;;;;;10.67;10.67;;;;;24.49;48.14;98351.31;4918471;28;102218;-82
2021/07/07 08:16:08;;;;;;;;;9.67;8.67;;;;;24.50;47.95;98347.41;4906671;28;105506;-82
2021/07/07 08:18:35;;;;;;;;;8.33;8.00;;;;;24.51;48.04;98351.00;4925744;28;102590;-82
2021/07/07 08:21:03;;;;;;;;;9.00;9.00;;;;;24.52;47.99;98350.69;4909461;28;102550;-82
2021/07/07 08:23:30;;;;;;;;;8.33;8.33;;;;;24.52;48.11;98359.00;4909649;28;102379;-82
2021/07/07 08:25:57;;;;;;;;;10.00;8.00;;;;;24.51;48.13;98348.22;4911320;28;104072;-82
2021/07/07 08:28:24;;;;;;;;;10.33;9.33;;;;;24.54;48.13;98362.25;4925739;28;102412;-81
2021/07/07 08:30:52;;;;;;;;;8.00;8.00;;;;;24.54;47.89;98353.19;4914520;28;102346;-82
2021/07/07 08:33:19;;;;;;;;;9.67;8.33;;;;;24.55;48.13;98354.78;4909886;28;102586;-82
2021/07/07 08:35:46;;;;;;;;;10.00;8.67;;;;;24.55;48.09;98355.63;4912325;28;103959;-82
2021/07/07 08:38:13;;;;;;;;;8.00;8.00;;;;;24.57;48.13;98353.41;4901055;28;103102;-83
2021/07/07 08:40:40;;;;;;;;;9.33;9.33;;;;;24.58;48.02;98355.03;4912020;28;104082;-82
2021/07/07 08:43:09;;;;;;;;;9.33;7.00;;;;;24.58;47.91;98360.56;4922535;28;102669;-82
2021/07/07 08:45:36;;;;;;;;;10.00;8.67;;;;;24.60;48.04;98358.31;4900769;28;104305;-82
2021/07/07 08:48:04;;;;;;;;;10.00;9.67;;;;;24.59;48.08;98367.72;4912152;28;103258;-83
2021/07/07 08:50:34;;;;;;;;;8.00;8.00;;;;;24.61;48.23;98365.50;4911627;28;103110;-84
2021/07/07 08:53:05;;;;;;;;;11.33;8.33;;;;;24.60;48.11;98361.09;4913148;28;103671;-83
2021/07/07 08:55:33;;;;;;;;;8.67;8.67;;;;;24.63;48.22;98365.22;4914109;28;109199;-83
2021/07/07 08:58:00;;;;;;;;;8.00;8.00;;;;;24.62;48.13;98358.84;4925126;28;102594;-83
2021/07/07 09:00:37;;;;;;;;;8.33;8.33;;;;;24.65;48.26;98362.97;4889060;28;102678;-83
2021/07/07 09:03:05;;;;;;;;;7.67;7.00;;;;;24.65;48.29;98361.00;4914347;28;102689;-83
2021/07/07 09:06:06;;;;;;;;;7.67;7.33;;;;;24.65;48.18;98358.25;4919701;28;110054;-83
2021/07/07 09:08:37;;;;;;;;;10.67;9.00;;;;;24.66;48.21;98362.66;4838540;28;102396;-83
2021/07/07 09:11:27;;;;;;;;;7.00;7.00;;;;;24.67;48.27;98364.31;4913197;28;103656;-83
2021/07/07 09:14:14;;;;;;;;;7.67;7.33;;;;;24.69;48.22;98358.47;4849235;28;102748;-83
2021/07/07 09:16:50;;;;;;;;;8.00;7.33;;;;;24.68;48.31;98365.94;4867500;28;108779;-83
2021/07/07 09:19:18;;;;;;;;;8.67;8.00;;;;;24.71;48.14;98376.44;4906158;28;102419;-83
2021/07/07 09:21:50;;;;;;;;;8.00;7.33;;;;;24.72;48.41;98366.19;4911758;28;102746;-83
2021/07/07 09:24:21;;;;;;;;;7.00;7.00;;;;;24.71;47.96;98376.44;4908730;28;102492;-83
2021/07/07 09:26:57;;;;;;;;;6.67;6.67;;;;;24.74;48.05;98378.59;4930425;28;104214;-83
2021/07/07 09:29:44;;;;;;;;;7.67;7.00;;;;;24.75;48.31;98377.47;4906122;28;102430;-83
2021/07/07 09:32:12;;;;;;;;;7.00;7.00;;;;;24.75;48.08;98383.00;4840318;28;102237;-83
2021/07/07 09:34:39;;;;;;;;;6.67;6.00;;;;;24.78;48.28;98381.56;4912894;28;102647;-83
2021/07/07 09:37:08;;;;;;;;;7.33;6.67;;;;;24.77;48.35;98380.75;4906798;28;104080;-83
2021/07/07 09:39:36;;;;;;;;;8.33;6.00;;;;;24.78;48.24;98382.41;4917330;28;104296;-82
2021/07/07 09:42:03;;;;;;;;;6.67;6.00;;;;;24.80;48.50;98379.34;4908199;28;102124;-82
2021/07/07 09:44:34;;;;;;;;;9.00;8.67;;;;;24.81;48.27;98381.78;4907615;28;102620;-82
2021/07/07 09:47:05;;;;;;;;;7.67;7.67;;;;;24.82;48.35;98377.09;4908454;28;104063;-82
2021/07/07 09:49:33;;;;;;;;;6.00;5.00;;;;;24.82;48.24;98380.69;4928054;28;102750;-82
2021/07/07 09:52:00;;;;;;;;;9.00;7.67;;;;;24.84;48.31;98381.22;4921435;28;102205;-82
2021/07/07 09:54:28;;;;;;;;;7.67;7.33;;;;;24.84;48.38;98381.22;4919470;28;102474;-82
2021/07/07 09:56:55;;;;;;;;;7.00;6.67;;;;;24.85;48.42;98382.88;4920967;28;104106;-83
2021/07/07 09:59:22;;;;;;;;;9.33;9.00;;;;;24.85;48.41;98388.41;4892560;28;104764;-83
2021/07/07 10:01:49;;;;;;;;;6.67;6.67;;;;;24.86;48.42;98387.28;4905463;28;102563;-82
2021/07/07 10:04:16;;;;;;;;;5.67;5.67;;;;;24.88;48.44;98381.47;4940379;28;102552;-82
2021/07/07 10:06:44;;;;;;;;;7.00;7.00;;;;;24.88;48.12;98384.22;4923518;28;104225;-82
2021/07/07 10:09:12;;;;;;;;;6.00;6.00;;;;;24.90;48.30;98390.31;4897165;28;105471;-83
2021/07/07 10:11:39;;;;;;;;;6.67;6.67;;;;;24.91;48.07;98380.03;4909120;28;102185;-82
2021/07/07 10:14:11;;;;;;;;;8.00;7.33;;;;;24.93;48.12;98386.09;4910869;28;102605;-82
2021/07/07 10:16:38;;;;;;;;;6.00;6.00;;;;;24.93;48.21;98377.78;4903391;28;109330;-82
2021/07/07 10:19:08;;;;;;;;;9.00;9.00;;;;;24.94;48.33;98380.28;4916483;28;104360;-82
2021/07/07 10:21:35;;;;;;;;;5.33;5.33;;;;;24.95;48.11;98375.56;4882334;28;103950;-82
2021/07/07 10:24:02;;;;;;;;;5.67;5.67;;;;;24.94;48.46;98374.75;4904061;28;102745;-82
2021/07/07 10:26:29;;;;;;;;;6.00;5.00;;;;;24.98;48.26;98374.97;4900331;28;104005;-82
2021/07/07 10:28:56;;;;;;;;;7.00;6.67;;;;;24.99;48.15;98371.06;4901926;28;102604;-83
2021/07/07 10:31:46;;;;;;;;;6.00;5.33;;;;;24.99;48.32;98371.06;4888649;28;102594;-82
2021/07/07 10:34:15;;;;;;;;;10.00;7.67;;;;;25.00;48.07;98373.53;4909849;28;102529;-82
2021/07/07 10:36:42;;;;;;;;;5.00;5.00;;;;;25.02;48.17;98376.81;4916952;28;104057;-82
2021/07/07 10:39:10;;;;;;;;;5.67;4.33;;;;;25.03;48.19;98372.13;4892245;28;102622;-82
2021/07/07 10:44:25;;;;;;;;;6.33;5.33;;;;;25.07;48.25;98384.22;4920829;28;102174;-82
2021/07/07 10:47:03;;;;;;;;;6.33;5.67;;;;;25.06;48.04;98383.41;4928928;28;104111;-82
2021/07/07 10:49:41;;;;;;;;;9.67;7.67;;;;;25.07;48.05;98385.06;4915428;28;102749;-82
2021/07/07 10:52:10;;;;;;;;;4.33;4.33;;;;;25.09;48.19;98379.19;4902933;28;102536;-82
2021/07/07 10:54:39;;;;;;;;;5.00;5.00;;;;;25.10;48.11;98380.84;4932868;28;110163;-83
2021/07/07 10:57:08;;;;;;;;;6.00;6.00;;;;;25.10;48.17;98380.84;4903009;28;108753;-83
2021/07/07 10:59:45;;;;;;;;;6.67;6.00;;;;;25.11;48.10;98383.31;4908734;28;103457;-82
2021/07/07 11:02:25;;;;;;;;;7.33;7.00;;;;;25.12;48.05;98370.31;4915708;28;103204;-82
2021/07/07 11:04:53;;;;;;;;;8.00;5.67;;;;;25.12;48.14;98376.66;4921246;28;102743;-82
2021/07/07 11:07:31;;;;;;;;;5.00;5.00;;;;;25.14;48.28;98368.88;4912649;28;104067;-82
2021/07/07 11:10:13;;;;;;;;;6.00;6.00;;;;;25.16;48.13;98376.88;4907159;28;102530;-82
2021/07/07 11:12:40;;;;;;;;;6.33;6.33;;;;;25.15;48.25;98370.53;4934222;28;102468;-83
2021/07/07 11:15:17;;;;;;;;;7.33;6.00;;;;;25.17;48.11;98379.34;4910168;28;103451;-83
2021/07/07 11:17:45;;;;;;;;;6.33;6.00;;;;;25.18;48.29;98369.09;4848708;28;108585;-82
2021/07/07 11:20:14;;;;;;;;;5.00;5.00;;;;;25.19;47.97;98368.78;4924079;28;102581;-83
2021/07/07 11:22:43;;;;;;;;;5.33;4.67;;;;;25.17;48.02;98362.72;4914268;28;103039;-83
2021/07/07 11:25:13;;;;;;;;;6.00;6.00;;;;;25.20;48.04;98366.84;4906294;28;102591;-83
2021/07/07 11:27:41;;;;;;;;;5.00;5.00;;;;;25.21;47.95;98374.03;4923783;28;104116;-83